sensor_id;sensor_type;location;lat;lon;timestamp;P1;durP1;ratioP1;P2;durP2;ratioP2
20623;SDS011;10471;42.736;23.346;2023-10-19T00:00:35;26.90;;;19.37;;
20623;SDS011;10471;42.736;23.346;2023-10-19T00:03:04;25.60;;;18.07;;
20623;SDS011;10471;42.736;23.346;2023-10-19T00:05:31;29.43;;;18.93;;
20623;SDS011;10471;42.736;23.346;2023-10-19T00:08:00;27.37;;;19.50;;
20623;SDS011;10471;42.736;23.346;2023-10-19T00:10:30;27.93;;;18.60;;
20623;SDS011;10471;42.736;23.346;2023-10-19T00:13:00;26.57;;;18.67;;
20623;SDS011;10471;42.736;23.346;2023-10-19T00:15:30;25.97;;;18.67;;
20623;SDS011;10471;42.736;23.346;2023-10-19T00:17:57;25.83;;;19.17;;
20623;SDS011;10471;42.736;23.346;2023-10-19T00:20:24;25.70;;;18.40;;
20623;SDS011;10471;42.736;23.346;2023-10-19T00:23:01;27.03;;;18.73;;
20623;SDS011;10471;42.736;23.346;2023-10-19T00:25:30;29.43;;;18.23;;
20623;SDS011;10471;42.736;23.346;2023-10-19T00:27:56;26.90;;;19.00;;
20623;SDS011;10471;42.736;23.346;2023-10-19T00:30:25;27.13;;;18.27;;
20623;SDS011;10471;42.736;23.346;2023-10-19T00:32:55;27.33;;;19.07;;
20623;SDS011;10471;42.736;23.346;2023-10-19T00:35:21;28.03;;;19.07;;
20623;SDS011;10471;42.736;23.346;2023-10-19T00:37:55;25.87;;;17.80;;
20623;SDS011;10471;42.736;23.346;2023-10-19T00:40:37;26.27;;;17.57;;
20623;SDS011;10471;42.736;23.346;2023-10-19T00:43:05;28.83;;;18.37;;
20623;SDS011;10471;42.736;23.346;2023-10-19T00:45:35;28.07;;;18.90;;
20623;SDS011;10471;42.736;23.346;2023-10-19T00:48:06;27.20;;;17.83;;
20623;SDS011;10471;42.736;23.346;2023-10-19T00:50:33;26.17;;;18.53;;
20623;SDS011;10471;42.736;23.346;2023-10-19T00:53:00;25.83;;;18.13;;
20623;SDS011;10471;42.736;23.346;2023-10-19T00:55:29;27.17;;;18.87;;
20623;SDS011;10471;42.736;23.346;2023-10-19T00:57:55;29.33;;;19.83;;
20623;SDS011;10471;42.736;23.346;2023-10-19T01:00:22;26.50;;;19.20;;
20623;SDS011;10471;42.736;23.346;2023-10-19T01:02:56;29.20;;;20.33;;
20623;SDS011;10471;42.736;23.346;2023-10-19T01:05:25;30.87;;;20.43;;
20623;SDS011;10471;42.736;23.346;2023-10-19T01:07:57;33.83;;;20.53;;
20623;SDS011;10471;42.736;23.346;2023-10-19T01:10:23;29.27;;;20.30;;
20623;SDS011;10471;42.736;23.346;2023-10-19T01:12:49;31.83;;;21.47;;
20623;SDS011;10471;42.736;23.346;2023-10-19T01:15:18;34.10;;;22.23;;
20623;SDS011;10471;42.736;23.346;2023-10-19T01:20:12;31.43;;;22.43;;
20623;SDS011;10471;42.736;23.346;2023-10-19T01:25:49;31.67;;;20.67;;
20623;SDS011;10471;42.736;23.346;2023-10-19T01:28:19;30.53;;;21.33;;
20623;SDS011;10471;42.736;23.346;2023-10-19T01:30:47;30.77;;;20.83;;
20623;SDS011;10471;42.736;23.346;2023-10-19T01:33:16;32.43;;;22.13;;
20623;SDS011;10471;42.736;23.346;2023-10-19T01:35:53;31.97;;;21.87;;
20623;SDS011;10471;42.736;23.346;2023-10-19T01:38:39;31.57;;;21.50;;
20623;SDS011;10471;42.736;23.346;2023-10-19T01:41:06;33.57;;;22.93;;
20623;SDS011;10471;42.736;23.346;2023-10-19T01:43:39;33.83;;;22.93;;
20623;SDS011;10471;42.736;23.346;2023-10-19T01:46:05;35.50;;;22.47;;
20623;SDS011;10471;42.736;23.346;2023-10-19T01:48:38;33.60;;;22.37;;
20623;SDS011;10471;42.736;23.346;2023-10-19T01:51:05;37.30;;;23.90;;
20623;SDS011;10471;42.736;23.346;2023-10-19T01:53:35;37.80;;;24.67;;
20623;SDS011;10471;42.736;23.346;2023-10-19T01:56:04;40.93;;;25.70;;
20623;SDS011;10471;42.736;23.346;2023-10-19T01:58:34;37.87;;;25.43;;
20623;SDS011;10471;42.736;23.346;2023-10-19T02:01:01;39.47;;;25.30;;
20623;SDS011;10471;42.736;23.346;2023-10-19T02:03:33;38.27;;;23.87;;
20623;SDS011;10471;42.736;23.346;2023-10-19T02:05:58;34.33;;;22.73;;
20623;SDS011;10471;42.736;23.346;2023-10-19T02:08:25;34.97;;;21.67;;
20623;SDS011;10471;42.736;23.346;2023-10-19T02:10:52;30.80;;;21.73;;
20623;SDS011;10471;42.736;23.346;2023-10-19T02:13:19;32.77;;;21.23;;
20623;SDS011;10471;42.736;23.346;2023-10-19T02:15:44;28.53;;;20.47;;
20623;SDS011;10471;42.736;23.346;2023-10-19T02:18:10;32.70;;;20.60;;
20623;SDS011;10471;42.736;23.346;2023-10-19T02:20:36;31.83;;;21.93;;
20623;SDS011;10471;42.736;23.346;2023-10-19T02:23:06;32.77;;;22.23;;
20623;SDS011;10471;42.736;23.346;2023-10-19T02:25:33;31.27;;;20.37;;
20623;SDS011;10471;42.736;23.346;2023-10-19T02:28:03;31.60;;;20.57;;
20623;SDS011;10471;42.736;23.346;2023-10-19T02:30:31;31.47;;;21.20;;
20623;SDS011;10471;42.736;23.346;2023-10-19T02:32:59;30.13;;;19.93;;
20623;SDS011;10471;42.736;23.346;2023-10-19T02:35:25;32.37;;;21.00;;
20623;SDS011;10471;42.736;23.346;2023-10-19T02:37:52;32.67;;;21.33;;
20623;SDS011;10471;42.736;23.346;2023-10-19T02:40:17;32.40;;;22.20;;
20623;SDS011;10471;42.736;23.346;2023-10-19T02:42:48;34.27;;;23.40;;
20623;SDS011;10471;42.736;23.346;2023-10-19T02:45:17;32.97;;;23.23;;
20623;SDS011;10471;42.736;23.346;2023-10-19T02:47:43;31.33;;;21.73;;
20623;SDS011;10471;42.736;23.346;2023-10-19T02:50:10;32.53;;;22.30;;
20623;SDS011;10471;42.736;23.346;2023-10-19T02:52:42;31.87;;;20.97;;
20623;SDS011;10471;42.736;23.346;2023-10-19T02:55:08;35.27;;;22.63;;
20623;SDS011;10471;42.736;23.346;2023-10-19T02:57:37;32.43;;;22.27;;
20623;SDS011;10471;42.736;23.346;2023-10-19T03:00:06;31.77;;;20.10;;
20623;SDS011;10471;42.736;23.346;2023-10-19T03:02:39;30.07;;;19.20;;
20623;SDS011;10471;42.736;23.346;2023-10-19T03:05:04;29.63;;;19.67;;
20623;SDS011;10471;42.736;23.346;2023-10-19T03:07:40;63.77;;;21.60;;
20623;SDS011;10471;42.736;23.346;2023-10-19T03:10:08;94.83;;;23.03;;
20623;SDS011;10471;42.736;23.346;2023-10-19T03:12:48;111.53;;;22.40;;
20623;SDS011;10471;42.736;23.346;2023-10-19T03:15:14;62.23;;;22.80;;
20623;SDS011;10471;42.736;23.346;2023-10-19T03:17:40;61.97;;;22.37;;
20623;SDS011;10471;42.736;23.346;2023-10-19T03:20:06;174.00;;;25.57;;
20623;SDS011;10471;42.736;23.346;2023-10-19T03:22:36;56.90;;;23.00;;
20623;SDS011;10471;42.736;23.346;2023-10-19T03:25:03;64.53;;;24.53;;
20623;SDS011;10471;42.736;23.346;2023-10-19T03:27:50;217.13;;;27.60;;
20623;SDS011;10471;42.736;23.346;2023-10-19T03:30:16;69.53;;;28.00;;
20623;SDS011;10471;42.736;23.346;2023-10-19T03:32:43;75.73;;;27.43;;
20623;SDS011;10471;42.736;23.346;2023-10-19T03:35:08;87.00;;;27.37;;
20623;SDS011;10471;42.736;23.346;2023-10-19T03:37:37;132.27;;;30.33;;
20623;SDS011;10471;42.736;23.346;2023-10-19T03:40:02;101.00;;;28.57;;
20623;SDS011;10471;42.736;23.346;2023-10-19T03:42:32;168.67;;;31.10;;
20623;SDS011;10471;42.736;23.346;2023-10-19T03:44:58;225.23;;;35.43;;
20623;SDS011;10471;42.736;23.346;2023-10-19T03:47:27;220.53;;;36.83;;
20623;SDS011;10471;42.736;23.346;2023-10-19T03:50:00;291.40;;;35.37;;
20623;SDS011;10471;42.736;23.346;2023-10-19T03:52:28;229.57;;;34.60;;
20623;SDS011;10471;42.736;23.346;2023-10-19T03:54:56;176.10;;;31.70;;
20623;SDS011;10471;42.736;23.346;2023-10-19T03:57:22;147.67;;;29.27;;
20623;SDS011;10471;42.736;23.346;2023-10-19T03:59:49;139.80;;;28.00;;
20623;SDS011;10471;42.736;23.346;2023-10-19T04:02:15;130.27;;;26.43;;
20623;SDS011;10471;42.736;23.346;2023-10-19T04:04:41;96.53;;;23.53;;
20623;SDS011;10471;42.736;23.346;2023-10-19T04:07:13;100.10;;;24.10;;
20623;SDS011;10471;42.736;23.346;2023-10-19T04:09:59;200.93;;;27.07;;
20623;SDS011;10471;42.736;23.346;2023-10-19T04:12:37;125.10;;;24.27;;
20623;SDS011;10471;42.736;23.346;2023-10-19T04:15:07;96.30;;;25.43;;
20623;SDS011;10471;42.736;23.346;2023-10-19T04:17:42;129.57;;;27.10;;
20623;SDS011;10471;42.736;23.346;2023-10-19T04:20:12;70.40;;;24.50;;
20623;SDS011;10471;42.736;23.346;2023-10-19T04:22:41;112.10;;;27.43;;
20623;SDS011;10471;42.736;23.346;2023-10-19T04:25:07;61.43;;;26.43;;
20623;SDS011;10471;42.736;23.346;2023-10-19T04:27:33;79.10;;;26.70;;
20623;SDS011;10471;42.736;23.346;2023-10-19T04:30:01;147.87;;;30.03;;
20623;SDS011;10471;42.736;23.346;2023-10-19T04:32:27;156.70;;;30.83;;
20623;SDS011;10471;42.736;23.346;2023-10-19T04:34:53;132.37;;;29.70;;
20623;SDS011;10471;42.736;23.346;2023-10-19T04:37:18;102.40;;;29.83;;
20623;SDS011;10471;42.736;23.346;2023-10-19T04:39:44;132.80;;;32.30;;
20623;SDS011;10471;42.736;23.346;2023-10-19T04:42:10;82.33;;;29.60;;
20623;SDS011;10471;42.736;23.346;2023-10-19T04:44:36;85.60;;;28.77;;
20623;SDS011;10471;42.736;23.346;2023-10-19T04:47:01;57.27;;;27.70;;
20623;SDS011;10471;42.736;23.346;2023-10-19T04:49:26;71.53;;;26.93;;
20623;SDS011;10471;42.736;23.346;2023-10-19T04:51:53;82.87;;;28.00;;
20623;SDS011;10471;42.736;23.346;2023-10-19T04:54:19;66.23;;;25.20;;
20623;SDS011;10471;42.736;23.346;2023-10-19T04:56:44;77.70;;;28.00;;
20623;SDS011;10471;42.736;23.346;2023-10-19T04:59:10;92.57;;;28.40;;
20623;SDS011;10471;42.736;23.346;2023-10-19T05:01:35;50.53;;;24.60;;
20623;SDS011;10471;42.736;23.346;2023-10-19T05:04:00;60.80;;;25.67;;
20623;SDS011;10471;42.736;23.346;2023-10-19T05:06:26;46.40;;;25.33;;
20623;SDS011;10471;42.736;23.346;2023-10-19T05:08:51;43.30;;;25.87;;
20623;SDS011;10471;42.736;23.346;2023-10-19T05:11:19;40.93;;;27.30;;
20623;SDS011;10471;42.736;23.346;2023-10-19T05:13:45;47.40;;;24.43;;
20623;SDS011;10471;42.736;23.346;2023-10-19T05:16:10;47.07;;;23.93;;
20623;SDS011;10471;42.736;23.346;2023-10-19T05:18:36;50.27;;;22.83;;
20623;SDS011;10471;42.736;23.346;2023-10-19T05:21:01;55.07;;;23.47;;
20623;SDS011;10471;42.736;23.346;2023-10-19T05:23:27;43.93;;;21.93;;
20623;SDS011;10471;42.736;23.346;2023-10-19T05:26:00;28.10;;;21.10;;
20623;SDS011;10471;42.736;23.346;2023-10-19T05:28:27;41.83;;;23.27;;
20623;SDS011;10471;42.736;23.346;2023-10-19T05:30:53;189.37;;;76.43;;
20623;SDS011;10471;42.736;23.346;2023-10-19T05:33:19;366.83;;;137.43;;
20623;SDS011;10471;42.736;23.346;2023-10-19T05:35:46;362.53;;;110.53;;
20623;SDS011;10471;42.736;23.346;2023-10-19T05:38:12;216.50;;;78.67;;
20623;SDS011;10471;42.736;23.346;2023-10-19T05:40:37;108.50;;;30.47;;
20623;SDS011;10471;42.736;23.346;2023-10-19T05:43:04;183.43;;;29.03;;
20623;SDS011;10471;42.736;23.346;2023-10-19T05:45:29;135.33;;;23.53;;
20623;SDS011;10471;42.736;23.346;2023-10-19T05:47:55;44.70;;;21.53;;
20623;SDS011;10471;42.736;23.346;2023-10-19T05:50:22;67.60;;;21.10;;
20623;SDS011;10471;42.736;23.346;2023-10-19T05:52:47;96.00;;;21.87;;
20623;SDS011;10471;42.736;23.346;2023-10-19T05:55:13;59.97;;;22.10;;
20623;SDS011;10471;42.736;23.346;2023-10-19T05:57:39;43.63;;;23.73;;
20623;SDS011;10471;42.736;23.346;2023-10-19T06:00:08;44.13;;;24.87;;
20623;SDS011;10471;42.736;23.346;2023-10-19T06:02:45;43.37;;;27.87;;
20623;SDS011;10471;42.736;23.346;2023-10-19T06:05:12;48.90;;;29.37;;
20623;SDS011;10471;42.736;23.346;2023-10-19T06:07:42;45.67;;;27.77;;
20623;SDS011;10471;42.736;23.346;2023-10-19T06:10:10;49.83;;;28.60;;
20623;SDS011;10471;42.736;23.346;2023-10-19T06:12:40;42.53;;;27.27;;
20623;SDS011;10471;42.736;23.346;2023-10-19T06:15:06;41.60;;;27.17;;
20623;SDS011;10471;42.736;23.346;2023-10-19T06:17:33;39.53;;;25.83;;
20623;SDS011;10471;42.736;23.346;2023-10-19T06:19:58;45.23;;;29.30;;
20623;SDS011;10471;42.736;23.346;2023-10-19T06:22:23;46.53;;;26.97;;
20623;SDS011;10471;42.736;23.346;2023-10-19T06:24:49;44.37;;;27.93;;
20623;SDS011;10471;42.736;23.346;2023-10-19T06:27:14;41.77;;;28.27;;
20623;SDS011;10471;42.736;23.346;2023-10-19T06:29:40;43.83;;;28.43;;
20623;SDS011;10471;42.736;23.346;2023-10-19T06:32:05;37.13;;;26.17;;
20623;SDS011;10471;42.736;23.346;2023-10-19T06:34:30;35.47;;;24.40;;
20623;SDS011;10471;42.736;23.346;2023-10-19T06:36:57;33.60;;;24.43;;
20623;SDS011;10471;42.736;23.346;2023-10-19T06:39:24;37.13;;;25.73;;
20623;SDS011;10471;42.736;23.346;2023-10-19T06:41:49;35.53;;;25.03;;
20623;SDS011;10471;42.736;23.346;2023-10-19T06:44:15;38.47;;;25.00;;
20623;SDS011;10471;42.736;23.346;2023-10-19T06:46:42;34.63;;;24.77;;
20623;SDS011;10471;42.736;23.346;2023-10-19T06:49:08;31.43;;;24.83;;
20623;SDS011;10471;42.736;23.346;2023-10-19T06:51:34;48.70;;;36.77;;
20623;SDS011;10471;42.736;23.346;2023-10-19T06:53:59;44.60;;;32.87;;
20623;SDS011;10471;42.736;23.346;2023-10-19T06:56:25;35.40;;;25.60;;
20623;SDS011;10471;42.736;23.346;2023-10-19T06:58:51;28.27;;;21.53;;
20623;SDS011;10471;42.736;23.346;2023-10-19T07:01:16;30.93;;;23.53;;
20623;SDS011;10471;42.736;23.346;2023-10-19T07:03:43;34.43;;;23.50;;
20623;SDS011;10471;42.736;23.346;2023-10-19T07:06:09;29.20;;;21.07;;
20623;SDS011;10471;42.736;23.346;2023-10-19T07:08:38;30.53;;;20.33;;
20623;SDS011;10471;42.736;23.346;2023-10-19T07:11:06;27.10;;;20.80;;
20623;SDS011;10471;42.736;23.346;2023-10-19T07:13:32;28.00;;;21.50;;
20623;SDS011;10471;42.736;23.346;2023-10-19T07:15:58;29.77;;;21.73;;
20623;SDS011;10471;42.736;23.346;2023-10-19T07:18:24;28.37;;;19.53;;
20623;SDS011;10471;42.736;23.346;2023-10-19T07:20:50;25.47;;;19.77;;
20623;SDS011;10471;42.736;23.346;2023-10-19T07:23:15;25.67;;;17.70;;
20623;SDS011;10471;42.736;23.346;2023-10-19T07:25:45;25.40;;;18.90;;
20623;SDS011;10471;42.736;23.346;2023-10-19T07:28:13;27.00;;;18.33;;
20623;SDS011;10471;42.736;23.346;2023-10-19T07:30:39;25.87;;;18.33;;
20623;SDS011;10471;42.736;23.346;2023-10-19T07:33:06;29.40;;;17.93;;
20623;SDS011;10471;42.736;23.346;2023-10-19T07:35:36;25.77;;;18.07;;
20623;SDS011;10471;42.736;23.346;2023-10-19T07:38:07;29.33;;;20.30;;
20623;SDS011;10471;42.736;23.346;2023-10-19T07:40:36;25.30;;;19.43;;
20623;SDS011;10471;42.736;23.346;2023-10-19T07:43:01;24.30;;;18.33;;
20623;SDS011;10471;42.736;23.346;2023-10-19T07:45:28;26.07;;;19.03;;
20623;SDS011;10471;42.736;23.346;2023-10-19T07:47:56;28.93;;;19.93;;
20623;SDS011;10471;42.736;23.346;2023-10-19T07:50:22;27.83;;;20.40;;
20623;SDS011;10471;42.736;23.346;2023-10-19T07:52:49;30.80;;;21.20;;
20623;SDS011;10471;42.736;23.346;2023-10-19T07:55:16;28.57;;;21.90;;
20623;SDS011;10471;42.736;23.346;2023-10-19T07:57:42;32.47;;;21.27;;
20623;SDS011;10471;42.736;23.346;2023-10-19T08:00:08;32.10;;;22.23;;
20623;SDS011;10471;42.736;23.346;2023-10-19T08:02:38;39.23;;;23.97;;
20623;SDS011;10471;42.736;23.346;2023-10-19T08:05:06;40.80;;;25.87;;
20623;SDS011;10471;42.736;23.346;2023-10-19T08:07:32;41.77;;;25.73;;
20623;SDS011;10471;42.736;23.346;2023-10-19T08:09:59;37.33;;;25.37;;
20623;SDS011;10471;42.736;23.346;2023-10-19T08:12:25;39.30;;;26.17;;
20623;SDS011;10471;42.736;23.346;2023-10-19T08:14:54;41.43;;;26.87;;
20623;SDS011;10471;42.736;23.346;2023-10-19T08:17:20;44.93;;;29.20;;
20623;SDS011;10471;42.736;23.346;2023-10-19T08:19:46;39.97;;;27.37;;
20623;SDS011;10471;42.736;23.346;2023-10-19T08:22:11;40.67;;;27.27;;
20623;SDS011;10471;42.736;23.346;2023-10-19T08:24:39;37.47;;;23.73;;
20623;SDS011;10471;42.736;23.346;2023-10-19T08:27:08;35.30;;;23.70;;
20623;SDS011;10471;42.736;23.346;2023-10-19T08:29:36;32.93;;;23.23;;
20623;SDS011;10471;42.736;23.346;2023-10-19T08:32:01;32.77;;;22.13;;
20623;SDS011;10471;42.736;23.346;2023-10-19T08:34:27;34.73;;;22.63;;
20623;SDS011;10471;42.736;23.346;2023-10-19T08:36:54;32.90;;;21.30;;
20623;SDS011;10471;42.736;23.346;2023-10-19T08:39:20;32.63;;;21.47;;
20623;SDS011;10471;42.736;23.346;2023-10-19T08:41:46;30.37;;;21.30;;
20623;SDS011;10471;42.736;23.346;2023-10-19T08:44:14;25.97;;;19.57;;
20623;SDS011;10471;42.736;23.346;2023-10-19T08:46:43;26.37;;;19.70;;
20623;SDS011;10471;42.736;23.346;2023-10-19T08:49:11;26.80;;;20.40;;
20623;SDS011;10471;42.736;23.346;2023-10-19T08:51:37;24.93;;;19.17;;
20623;SDS011;10471;42.736;23.346;2023-10-19T08:54:04;23.03;;;17.70;;
20623;SDS011;10471;42.736;23.346;2023-10-19T08:56:31;21.57;;;17.77;;
20623;SDS011;10471;42.736;23.346;2023-10-19T08:58:58;22.47;;;17.57;;
20623;SDS011;10471;42.736;23.346;2023-10-19T09:01:26;20.00;;;15.70;;
20623;SDS011;10471;42.736;23.346;2023-10-19T09:03:53;19.33;;;15.70;;
20623;SDS011;10471;42.736;23.346;2023-10-19T09:06:20;20.80;;;16.03;;
20623;SDS011;10471;42.736;23.346;2023-10-19T09:08:46;20.90;;;16.07;;
20623;SDS011;10471;42.736;23.346;2023-10-19T09:11:14;20.23;;;15.37;;
20623;SDS011;10471;42.736;23.346;2023-10-19T09:16:09;20.83;;;14.60;;
20623;SDS011;10471;42.736;23.346;2023-10-19T09:18:35;18.73;;;14.90;;
20623;SDS011;10471;42.736;23.346;2023-10-19T09:21:00;18.50;;;13.90;;
20623;SDS011;10471;42.736;23.346;2023-10-19T09:23:32;14.13;;;11.57;;
20623;SDS011;10471;42.736;23.346;2023-10-19T09:25:59;12.33;;;9.93;;
20623;SDS011;10471;42.736;23.346;2023-10-19T09:28:28;12.10;;;10.13;;
20623;SDS011;10471;42.736;23.346;2023-10-19T09:30:54;14.27;;;11.33;;
20623;SDS011;10471;42.736;23.346;2023-10-19T09:33:21;14.80;;;11.73;;
20623;SDS011;10471;42.736;23.346;2023-10-19T09:35:47;12.80;;;11.43;;
20623;SDS011;10471;42.736;23.346;2023-10-19T09:38:17;12.67;;;10.00;;
20623;SDS011;10471;42.736;23.346;2023-10-19T09:40:53;17.47;;;10.67;;
20623;SDS011;10471;42.736;23.346;2023-10-19T09:43:42;13.07;;;10.90;;
20623;SDS011;10471;42.736;23.346;2023-10-19T09:46:16;11.27;;;9.27;;
20623;SDS011;10471;42.736;23.346;2023-10-19T09:48:46;10.07;;;8.63;;
20623;SDS011;10471;42.736;23.346;2023-10-19T09:51:15;16.17;;;10.30;;
20623;SDS011;10471;42.736;23.346;2023-10-19T09:53:46;11.83;;;9.90;;
20623;SDS011;10471;42.736;23.346;2023-10-19T09:56:26;14.00;;;11.17;;
20623;SDS011;10471;42.736;23.346;2023-10-19T09:59:06;14.17;;;11.73;;
20623;SDS011;10471;42.736;23.346;2023-10-19T10:04:34;15.40;;;12.77;;
20623;SDS011;10471;42.736;23.346;2023-10-19T10:07:04;12.87;;;11.17;;
20623;SDS011;10471;42.736;23.346;2023-10-19T10:09:32;15.07;;;10.47;;
20623;SDS011;10471;42.736;23.346;2023-10-19T10:12:23;15.13;;;11.40;;
20623;SDS011;10471;42.736;23.346;2023-10-19T10:14:57;13.23;;;10.57;;
20623;SDS011;10471;42.736;23.346;2023-10-19T10:17:27;13.10;;;10.57;;
20623;SDS011;10471;42.736;23.346;2023-10-19T10:19:53;13.77;;;10.17;;
20623;SDS011;10471;42.736;23.346;2023-10-19T10:22:21;11.37;;;10.17;;
20623;SDS011;10471;42.736;23.346;2023-10-19T10:24:47;13.43;;;10.33;;
20623;SDS011;10471;42.736;23.346;2023-10-19T10:27:20;12.13;;;10.83;;
20623;SDS011;10471;42.736;23.346;2023-10-19T10:29:59;14.10;;;10.43;;
20623;SDS011;10471;42.736;23.346;2023-10-19T10:38:20;11.37;;;9.03;;
20623;SDS011;10471;42.736;23.346;2023-10-19T10:40:46;12.93;;;9.97;;
20623;SDS011;10471;42.736;23.346;2023-10-19T10:43:13;13.60;;;10.27;;
20623;SDS011;10471;42.736;23.346;2023-10-19T10:45:39;12.00;;;9.83;;
20623;SDS011;10471;42.736;23.346;2023-10-19T10:48:25;12.83;;;10.03;;
20623;SDS011;10471;42.736;23.346;2023-10-19T10:50:50;11.30;;;10.03;;
20623;SDS011;10471;42.736;23.346;2023-10-19T10:53:16;12.27;;;10.43;;
20623;SDS011;10471;42.736;23.346;2023-10-19T10:55:41;12.43;;;9.97;;
20623;SDS011;10471;42.736;23.346;2023-10-19T10:58:07;13.03;;;10.43;;
20623;SDS011;10471;42.736;23.346;2023-10-19T11:00:33;11.53;;;10.13;;
20623;SDS011;10471;42.736;23.346;2023-10-19T11:03:06;12.40;;;11.10;;
20623;SDS011;10471;42.736;23.346;2023-10-19T11:05:38;11.83;;;10.27;;
20623;SDS011;10471;42.736;23.346;2023-10-19T11:08:10;12.23;;;10.53;;
20623;SDS011;10471;42.736;23.346;2023-10-19T11:10:38;13.10;;;10.13;;
20623;SDS011;10471;42.736;23.346;2023-10-19T11:13:07;11.57;;;10.20;;
20623;SDS011;10471;42.736;23.346;2023-10-19T11:15:35;13.53;;;10.67;;
20623;SDS011;10471;42.736;23.346;2023-10-19T11:18:04;12.53;;;11.23;;
20623;SDS011;10471;42.736;23.346;2023-10-19T11:20:34;12.33;;;9.20;;
20623;SDS011;10471;42.736;23.346;2023-10-19T11:23:00;9.10;;;7.10;;
20623;SDS011;10471;42.736;23.346;2023-10-19T11:25:27;10.03;;;6.83;;
20623;SDS011;10471;42.736;23.346;2023-10-19T11:27:56;7.90;;;6.83;;
20623;SDS011;10471;42.736;23.346;2023-10-19T11:30:32;8.97;;;7.10;;
20623;SDS011;10471;42.736;23.346;2023-10-19T11:32:58;8.87;;;7.23;;
20623;SDS011;10471;42.736;23.346;2023-10-19T11:35:28;7.00;;;6.30;;
20623;SDS011;10471;42.736;23.346;2023-10-19T11:37:58;9.33;;;7.20;;
20623;SDS011;10471;42.736;23.346;2023-10-19T11:40:25;8.83;;;7.67;;
20623;SDS011;10471;42.736;23.346;2023-10-19T11:42:52;8.87;;;6.83;;
20623;SDS011;10471;42.736;23.346;2023-10-19T11:45:21;9.43;;;6.80;;
20623;SDS011;10471;42.736;23.346;2023-10-19T11:47:48;10.80;;;6.30;;
20623;SDS011;10471;42.736;23.346;2023-10-19T11:50:17;7.20;;;6.50;;
20623;SDS011;10471;42.736;23.346;2023-10-19T11:52:44;11.37;;;7.00;;
20623;SDS011;10471;42.736;23.346;2023-10-19T11:55:11;10.47;;;7.03;;
20623;SDS011;10471;42.736;23.346;2023-10-19T11:57:43;9.57;;;7.33;;
20623;SDS011;10471;42.736;23.346;2023-10-19T12:00:10;8.47;;;6.77;;
20623;SDS011;10471;42.736;23.346;2023-10-19T12:02:39;10.53;;;6.90;;
20623;SDS011;10471;42.736;23.346;2023-10-19T12:05:06;11.27;;;7.17;;
20623;SDS011;10471;42.736;23.346;2023-10-19T12:07:38;11.60;;;7.20;;
20623;SDS011;10471;42.736;23.346;2023-10-19T12:10:05;8.13;;;6.97;;
20623;SDS011;10471;42.736;23.346;2023-10-19T12:12:33;7.87;;;7.03;;
20623;SDS011;10471;42.736;23.346;2023-10-19T12:14:58;10.90;;;7.07;;
20623;SDS011;10471;42.736;23.346;2023-10-19T12:17:24;11.90;;;6.70;;
20623;SDS011;10471;42.736;23.346;2023-10-19T12:19:51;7.57;;;6.10;;
20623;SDS011;10471;42.736;23.346;2023-10-19T12:22:17;7.10;;;6.30;;
20623;SDS011;10471;42.736;23.346;2023-10-19T12:24:42;8.57;;;7.27;;
20623;SDS011;10471;42.736;23.346;2023-10-19T12:27:08;12.33;;;8.13;;
20623;SDS011;10471;42.736;23.346;2023-10-19T12:29:34;8.37;;;6.93;;
20623;SDS011;10471;42.736;23.346;2023-10-19T12:31:59;8.00;;;7.10;;
20623;SDS011;10471;42.736;23.346;2023-10-19T12:34:25;7.83;;;6.43;;
20623;SDS011;10471;42.736;23.346;2023-10-19T12:36:54;8.30;;;6.47;;
20623;SDS011;10471;42.736;23.346;2023-10-19T12:39:22;7.60;;;6.80;;
20623;SDS011;10471;42.736;23.346;2023-10-19T12:42:00;6.73;;;5.73;;
20623;SDS011;10471;42.736;23.346;2023-10-19T12:44:26;9.63;;;6.43;;
20623;SDS011;10471;42.736;23.346;2023-10-19T12:46:54;8.67;;;6.80;;
20623;SDS011;10471;42.736;23.346;2023-10-19T12:49:22;7.57;;;6.77;;
20623;SDS011;10471;42.736;23.346;2023-10-19T12:51:51;8.47;;;6.40;;
20623;SDS011;10471;42.736;23.346;2023-10-19T12:54:17;10.33;;;6.63;;
20623;SDS011;10471;42.736;23.346;2023-10-19T12:56:43;9.90;;;7.60;;
20623;SDS011;10471;42.736;23.346;2023-10-19T12:59:08;10.27;;;7.10;;
20623;SDS011;10471;42.736;23.346;2023-10-19T13:01:34;10.63;;;7.27;;
20623;SDS011;10471;42.736;23.346;2023-10-19T13:04:00;11.30;;;7.30;;
20623;SDS011;10471;42.736;23.346;2023-10-19T13:06:30;9.83;;;7.10;;
20623;SDS011;10471;42.736;23.346;2023-10-19T13:08:56;7.73;;;6.63;;
20623;SDS011;10471;42.736;23.346;2023-10-19T13:11:22;9.67;;;6.70;;
20623;SDS011;10471;42.736;23.346;2023-10-19T13:13:48;7.40;;;6.60;;
20623;SDS011;10471;42.736;23.346;2023-10-19T13:16:14;7.73;;;6.20;;
20623;SDS011;10471;42.736;23.346;2023-10-19T13:18:40;6.20;;;5.60;;
20623;SDS011;10471;42.736;23.346;2023-10-19T13:21:05;7.50;;;6.40;;
20623;SDS011;10471;42.736;23.346;2023-10-19T13:23:31;8.50;;;6.03;;
20623;SDS011;10471;42.736;23.346;2023-10-19T13:26:01;7.47;;;6.00;;
20623;SDS011;10471;42.736;23.346;2023-10-19T13:28:32;8.90;;;6.17;;
20623;SDS011;10471;42.736;23.346;2023-10-19T13:30:58;8.67;;;5.77;;
20623;SDS011;10471;42.736;23.346;2023-10-19T13:33:24;8.57;;;5.40;;
20623;SDS011;10471;42.736;23.346;2023-10-19T13:35:49;7.83;;;5.87;;
20623;SDS011;10471;42.736;23.346;2023-10-19T13:38:15;9.40;;;5.90;;
20623;SDS011;10471;42.736;23.346;2023-10-19T13:40:47;6.00;;;5.30;;
20623;SDS011;10471;42.736;23.346;2023-10-19T13:43:15;7.73;;;5.43;;
20623;SDS011;10471;42.736;23.346;2023-10-19T13:45:43;6.10;;;5.50;;
20623;SDS011;10471;42.736;23.346;2023-10-19T13:48:10;9.40;;;5.10;;
20623;SDS011;10471;42.736;23.346;2023-10-19T13:50:40;6.53;;;4.50;;
20623;SDS011;10471;42.736;23.346;2023-10-19T13:53:13;5.97;;;4.63;;
20623;SDS011;10471;42.736;23.346;2023-10-19T13:55:42;5.73;;;4.73;;
20623;SDS011;10471;42.736;23.346;2023-10-19T13:58:08;6.63;;;4.80;;
20623;SDS011;10471;42.736;23.346;2023-10-19T14:00:34;8.17;;;4.50;;
20623;SDS011;10471;42.736;23.346;2023-10-19T14:03:05;6.10;;;5.07;;
20623;SDS011;10471;42.736;23.346;2023-10-19T14:05:41;5.07;;;4.23;;
20623;SDS011;10471;42.736;23.346;2023-10-19T14:08:08;6.00;;;5.27;;
20623;SDS011;10471;42.736;23.346;2023-10-19T14:10:34;5.87;;;4.77;;
20623;SDS011;10471;42.736;23.346;2023-10-19T14:13:00;9.67;;;4.60;;
20623;SDS011;10471;42.736;23.346;2023-10-19T14:15:25;8.53;;;4.67;;
20623;SDS011;10471;42.736;23.346;2023-10-19T14:17:55;6.87;;;4.40;;
20623;SDS011;10471;42.736;23.346;2023-10-19T14:20:21;10.00;;;4.90;;
20623;SDS011;10471;42.736;23.346;2023-10-19T14:22:50;7.23;;;4.80;;
20623;SDS011;10471;42.736;23.346;2023-10-19T14:25:18;8.77;;;4.83;;
20623;SDS011;10471;42.736;23.346;2023-10-19T14:27:46;7.53;;;4.97;;
20623;SDS011;10471;42.736;23.346;2023-10-19T14:30:22;7.13;;;4.60;;
20623;SDS011;10471;42.736;23.346;2023-10-19T14:32:48;6.63;;;4.53;;
20623;SDS011;10471;42.736;23.346;2023-10-19T14:35:21;8.47;;;4.60;;